Time;durP1;ratioP1;P1;durP2;ratioP2;P2;SDS_P1;SDS_P2;PMS_P1;PMS_P2;Temp;Humidity;BMP_temperature;BMP_pressure;BME280_temperature;BME280_humidity;BME280_pressure;Samples;Min_cycle;Max_cycle;Signal;HPM_P1;HPM_P2
2022/09/26 00:00:40;;;;;;;1.60;1.38;;;;;;;10.05;64.20;95842.75;6102640;29;20048;-68
2022/09/26 00:03:46;;;;;;;1.42;1.33;;;;;;;10.03;64.38;95849.94;6102709;29;20047;-68
2022/09/26 00:06:52;;;;;;;2.72;1.60;;;;;;;9.97;64.47;95853.03;6102603;29;20040;-68
2022/09/26 00:09:54;;;;;;;1.88;1.63;;;;;;;10.00;64.56;95860.69;6102025;29;20079;-68
2022/09/26 00:13:01;;;;;;;1.85;1.42;;;;;;;9.95;64.91;95860.19;6101849;29;20106;-69
2022/09/26 00:16:05;;;;;;;1.70;1.60;;;;;;;10.00;64.99;95866.78;6101722;29;20067;-68
2022/09/26 00:19:07;;;;;;;2.13;1.40;;;;;;;10.09;64.50;95850.25;6102232;29;20044;-68
2022/09/26 00:22:12;;;;;;;1.90;1.40;;;;;;;9.87;65.07;95861.63;6101948;29;20048;-68
2022/09/26 00:25:13;;;;;;;2.55;1.80;;;;;;;9.99;65.15;95853.75;6102299;29;20143;-69
2022/09/26 00:28:16;;;;;;;2.03;1.45;;;;;;;9.96;65.04;95856.59;6101943;29;20414;-70
2022/09/26 00:31:24;;;;;;;1.60;1.50;;;;;;;9.94;65.55;95861.16;6101673;29;20060;-68
2022/09/26 00:34:25;;;;;;;2.13;1.27;;;;;;;9.76;66.11;95858.16;6101716;29;20044;-69
2022/09/26 00:37:29;;;;;;;1.30;1.20;;;;;;;9.88;65.99;95855.44;6101844;29;20044;-69
2022/09/26 00:40:31;;;;;;;3.13;2.83;;;;;;;9.63;66.94;95867.00;6101819;29;20510;-69
2022/09/26 00:43:36;;;;;;;2.03;1.48;;;;;;;9.62;67.07;95859.22;6101664;29;20048;-69
2022/09/26 00:46:44;;;;;;;1.30;1.20;;;;;;;9.50;67.52;95852.31;6101617;29;20059;-69
2022/09/26 00:49:51;;;;;;;1.60;1.50;;;;;;;9.37;67.98;95850.63;6101471;29;20142;-68
2022/09/26 00:53:06;;;;;;;2.03;1.73;;;;;;;9.40;68.02;95853.03;6101653;29;20047;-69
2022/09/26 00:56:14;;;;;;;1.45;1.35;;;;;;;9.23;68.67;95850.84;6101762;29;20048;-69
2022/09/26 00:59:30;;;;;;;2.00;1.15;;;;;;;9.22;68.76;95855.25;6101694;29;20566;-69
2022/09/26 01:02:34;;;;;;;1.50;1.40;;;;;;;9.09;69.21;95851.06;6101541;29;20044;-70
2022/09/26 01:05:39;;;;;;;2.08;1.58;;;;;;;9.01;69.59;95850.78;6101514;29;20502;-68
2022/09/26 01:08:46;;;;;;;1.60;1.50;;;;;;;8.95;70.09;95839.78;6101121;29;20491;-68
2022/09/26 01:11:48;;;;;;;1.77;1.67;;;;;;;8.73;70.62;95843.19;6101167;29;20507;-68
2022/09/26 01:14:53;;;;;;;1.58;1.48;;;;;;;8.75;70.37;95829.97;6100227;29;20146;-69
2022/09/26 01:17:55;;;;;;;1.70;1.60;;;;;;;8.74;70.49;95844.84;6101383;29;20067;-69
2022/09/26 01:21:27;;;;;;;2.78;1.80;;;;;;;8.51;71.36;95833.41;6101434;29;20040;-69
2022/09/26 01:24:38;;;;;;;2.20;1.73;;;;;;;8.53;71.28;95835.94;6102042;29;20083;-69
2022/09/26 01:28:17;;;;;;;1.80;1.70;;;;;;;8.56;71.06;95850.63;6106547;29;20056;-69
2022/09/26 01:31:31;;;;;;;2.97;1.38;;;;;;;8.49;71.16;95851.06;6106169;29;20093;-69
2022/09/26 01:34:46;;;;;;;1.40;1.30;;;;;;;8.40;71.46;95849.09;6105732;29;20051;-70
2022/09/26 01:37:59;;;;;;;2.38;2.17;;;;;;;8.44;71.34;95860.22;6105685;29;20044;-69
2022/09/26 01:41:04;;;;;;;1.73;1.60;;;;;;;8.35;71.43;95859.06;6105392;29;20143;-69
2022/09/26 01:44:14;;;;;;;1.70;1.52;;;;;;;8.37;71.36;95867.63;6105482;29;20495;-69
2022/09/26 01:47:27;;;;;;;1.55;1.45;;;;;;;8.39;71.46;95865.78;6105508;29;20100;-70
2022/09/26 01:51:01;;;;;;;1.92;1.80;;;;;;;8.32;71.63;95861.88;6105535;29;20044;-71
2022/09/26 01:54:10;;;;;;;1.77;1.65;;;;;;;8.35;71.33;95869.56;6100154;29;20099;-70
2022/09/26 01:57:28;;;;;;;1.75;1.40;;;;;;;8.16;72.06;95869.19;6105219;29;20044;-69
2022/09/26 02:00:37;;;;;;;1.52;1.42;;;;;;;8.10;72.09;95871.28;6105204;29;20043;-69
2022/09/26 02:04:01;;;;;;;2.05;1.70;;;;;;;8.15;72.01;95877.97;6105068;29;20075;-70
2022/09/26 02:07:15;;;;;;;1.60;1.50;;;;;;;8.02;72.82;95872.78;6104982;29;20068;-70
2022/09/26 02:10:37;;;;;;;2.17;1.80;;;;;;;7.98;72.59;95877.41;6104771;29;20044;-69
2022/09/26 02:13:55;;;;;;;2.00;1.90;;;;;;;8.02;72.88;95878.03;6104729;29;20044;-68
2022/09/26 02:17:08;;;;;;;2.40;1.85;;;;;;;7.95;72.88;95888.06;6104706;29;20430;-69
2022/09/26 02:20:28;;;;;;;2.20;1.73;;;;;;;7.94;73.16;95886.41;6104800;29;20044;-68
2022/09/26 02:23:31;;;;;;;2.90;1.92;;;;;;;7.99;72.89;95884.31;6104518;29;20048;-68
2022/09/26 02:26:35;;;;;;;;;;;;;;;7.92;72.81;95885.69;6104772;29;20056;-69
2022/09/26 02:29:40;;;;;;;1.95;1.65;;;;;;;7.95;73.33;95892.47;6104287;29;19942;-69
2022/09/26 02:32:45;;;;;;;1.75;1.65;;;;;;;8.08;72.90;95898.53;6104328;29;20044;-68
2022/09/26 02:35:56;;;;;;;1.67;1.58;;;;;;;8.15;72.70;95894.53;6104037;29;20044;-69
2022/09/26 02:39:03;;;;;;;2.20;2.00;;;;;;;8.19;72.42;95898.63;6103493;29;20092;-69
2022/09/26 02:42:56;;;;;;;2.70;1.80;;;;;;;8.20;72.58;95894.22;6104083;29;20518;-69
2022/09/26 02:46:20;;;;;;;2.88;2.33;;;;;;;8.55;71.52;95896.97;6099482;29;20060;-68
2022/09/26 02:49:49;;;;;;;2.80;2.45;;;;;;;8.88;70.57;95903.31;6103795;29;20540;-69
2022/09/26 02:53:09;;;;;;;2.80;2.55;;;;;;;8.79;70.62;95904.84;6103623;29;20047;-69
2022/09/26 02:56:42;;;;;;;2.55;1.92;;;;;;;8.84;70.63;95902.72;6103691;29;20052;-69
2022/09/26 03:00:06;;;;;;;2.47;2.28;;;;;;;9.22;69.78;95904.28;6103558;29;20040;-69
2022/09/26 03:03:51;;;;;;;2.88;2.22;;;;;;;9.48;69.47;95906.72;6103529;29;20494;-69
2022/09/26 03:07:03;;;;;;;2.33;2.13;;;;;;;9.75;68.18;95903.78;6098747;29;20052;-68
2022/09/26 03:10:11;;;;;;;2.30;2.10;;;;;;;9.87;67.99;95903.66;6103156;29;20047;-69
2022/09/26 03:13:18;;;;;;;3.92;2.90;;;;;;;10.08;67.26;95905.59;6103132;29;20403;-68
2022/09/26 03:16:24;;;;;;;3.90;3.10;;;;;;;10.10;66.73;95908.91;6101958;29;20155;-69
2022/09/26 03:20:15;;;;;;;2.17;1.98;;;;;;;10.29;65.79;95914.44;6103185;29;20040;-70
2022/09/26 03:23:23;;;;;;;2.40;2.20;;;;;;;10.11;66.14;95910.63;6058938;29;20427;-69
2022/09/26 03:26:28;;;;;;;2.20;2.00;;;;;;;10.14;66.21;95920.06;6103210;29;20044;-69
2022/09/26 03:29:32;;;;;;;2.33;2.13;;;;;;;10.07;66.00;95917.88;6103269;29;20048;-69
2022/09/26 03:32:37;;;;;;;3.20;2.42;;;;;;;9.99;66.37;95928.19;6103280;29;20430;-68
2022/09/26 03:35:41;;;;;;;2.22;2.05;;;;;;;9.82;66.88;95926.84;6117394;29;20422;-70
2022/09/26 03:38:45;;;;;;;2.13;1.92;;;;;;;9.68;67.41;95929.69;6102834;29;20056;-69
2022/09/26 03:41:50;;;;;;;2.38;1.90;;;;;;;9.58;68.18;95950.56;6102587;29;20051;-69
2022/09/26 03:44:53;;;;;;;;;;;;;;;9.89;67.73;95942.97;6103120;29;20517;-69
2022/09/26 03:47:58;;;;;;;2.42;2.10;;;;;;;10.40;66.58;95952.22;6102208;29;20345;-69
2022/09/26 03:51:12;;;;;;;1.90;1.80;;;;;;;10.81;65.35;95946.25;6102645;29;20052;-68
2022/09/26 03:54:17;;;;;;;2.08;1.88;;;;;;;10.95;64.69;95953.06;6102216;29;20052;-69
2022/09/26 03:57:21;;;;;;;1.67;1.58;;;;;;;10.92;64.34;95951.50;6102548;29;20048;-68
2022/09/26 04:00:26;;;;;;;2.22;1.88;;;;;;;11.02;63.92;95949.81;6101888;29;20049;-69
2022/09/26 04:03:34;;;;;;;4.38;1.90;;;;;;;11.36;62.35;95964.66;6102224;29;20130;-69
2022/09/26 04:06:38;;;;;;;5.10;2.67;;;;;;;11.67;61.67;95958.50;6102227;29;20071;-69
2022/09/26 04:09:42;;;;;;;3.87;1.97;;;;;;;11.84;59.81;95972.06;6101946;29;20036;-69
2022/09/26 04:12:47;;;;;;;1.40;1.23;;;;;;;11.74;59.73;95973.78;6102010;29;20044;-69
2022/09/26 04:15:55;;;;;;;1.30;1.20;;;;;;;11.73;59.52;95974.75;6101709;29;20052;-69
2022/09/26 04:19:00;;;;;;;1.25;1.00;;;;;;;11.74;59.14;95976.41;6101709;29;20048;-70
2022/09/26 04:22:06;;;;;;;1.20;1.10;;;;;;;11.62;59.75;95976.47;6101047;29;20064;-68
2022/09/26 04:25:11;;;;;;;1.98;1.38;;;;;;;11.77;58.64;95973.53;6116124;29;20084;-69
2022/09/26 04:28:16;;;;;;;2.65;1.08;;;;;;;11.69;58.42;95969.75;6101580;29;20392;-71
2022/09/26 04:31:22;;;;;;;1.08;0.98;;;;;;;11.73;58.97;95977.41;6101904;29;20051;-69
2022/09/26 04:34:26;;;;;;;1.38;1.20;;;;;;;12.15;57.15;95987.97;6101286;29;20043;-68
2022/09/26 04:37:29;;;;;;;1.43;1.33;;;;;;;12.34;56.81;95990.66;6101739;29;20044;-69
2022/09/26 04:40:34;;;;;;;1.08;1.08;;;;;;;12.36;56.79;95988.72;6101415;29;20044;-69
2022/09/26 04:43:39;;;;;;;0.80;0.80;;;;;;;12.28;56.62;95991.19;6115770;29;20044;-70
2022/09/26 04:46:44;;;;;;;0.73;0.73;;;;;;;12.20;56.58;96015.59;6101514;29;20040;-68
2022/09/26 04:49:48;;;;;;;0.93;0.70;;;;;;;12.10;56.70;96009.44;6101559;29;20052;-70
2022/09/26 04:52:52;;;;;;;1.83;0.70;;;;;;;12.02;56.11;96015.34;6101664;29;20048;-69
2022/09/26 04:55:56;;;;;;;0.97;0.70;;;;;;;11.94;56.48;96017.78;6100129;29;20119;-68
2022/09/26 04:59:01;;;;;;;0.73;0.73;;;;;;;11.92;56.34;96025.00;6101344;29;20044;-70
2022/09/26 05:02:06;;;;;;;0.95;0.75;;;;;;;12.09;55.38;96029.69;6106054;29;20044;-69
2022/09/26 05:05:11;;;;;;;0.98;0.88;;;;;;;12.02;55.64;96028.53;6106425;29;20422;-69
2022/09/26 05:08:16;;;;;;;1.42;1.05;;;;;;;12.11;55.18;96033.00;6106152;29;20048;-69
2022/09/26 05:11:20;;;;;;;0.88;0.88;;;;;;;12.21;54.81;96037.53;6106096;29;20052;-69
2022/09/26 05:14:25;;;;;;;1.00;0.73;;;;;;;12.32;54.27;96032.19;6104979;29;20060;-69
2022/09/26 05:17:30;;;;;;;1.02;0.88;;;;;;;12.40;54.00;96032.38;6105999;29;20134;-69
2022/09/26 05:20:36;;;;;;;1.00;0.90;;;;;;;12.51;53.75;96034.94;6120252;29;20048;-69
2022/09/26 05:27:05;;;;;;;0.70;0.60;;;;;;;13.08;52.18;96044.97;6106170;29;20127;-69
2022/09/26 05:30:11;;;;;;;0.82;0.80;;;;;;;13.34;51.41;96054.09;6104364;29;20040;-68
2022/09/26 05:33:17;;;;;;;1.45;0.93;;;;;;;13.40;50.94;96043.00;6105397;29;20410;-69
2022/09/26 05:36:20;;;;;;;1.10;1.00;;;;;;;13.41;50.63;96054.38;6105528;29;20051;-69
2022/09/26 05:42:47;;;;;;;1.10;1.00;;;;;;;13.28;50.57;96046.72;6105553;29;20044;-69
2022/09/26 05:46:12;;;;;;;1.10;0.95;;;;;;;13.16;51.21;96056.56;6105478;29;20040;-69
2022/09/26 05:49:17;;;;;;;1.15;0.98;;;;;;;13.12;51.17;96051.66;6105114;29;20040;-69
2022/09/26 05:52:21;;;;;;;1.73;0.90;;;;;;;13.18;51.14;96048.47;6104777;29;20518;-70
2022/09/26 05:55:28;;;;;;;1.73;0.75;;;;;;;13.44;51.00;96048.81;6105065;29;20044;-69
2022/09/26 05:58:33;;;;;;;1.58;1.00;;;;;;;13.77;49.89;96050.25;6104719;29;20040;-69
2022/09/26 06:01:37;;;;;;;1.67;1.20;;;;;;;14.03;49.28;96060.25;6104729;29;20043;-69
2022/09/26 06:04:43;;;;;;;1.85;1.48;;;;;;;14.42;48.49;96057.56;6104821;29;20104;-69
2022/09/26 06:07:47;;;;;;;0.85;0.85;;;;;;;14.71;47.27;96050.38;6104829;29;20040;-69
2022/09/26 06:10:49;;;;;;;1.00;0.80;;;;;;;15.23;45.91;96058.66;6103665;29;20142;-69
2022/09/26 06:13:54;;;;;;;1.23;1.10;;;;;;;15.66;45.23;96051.81;6104264;29;20044;-70
2022/09/26 06:16:58;;;;;;;1.02;0.77;;;;;;;15.78;44.89;96055.09;6104672;29;20095;-70
2022/09/26 06:20:03;;;;;;;1.40;1.30;;;;;;;15.74;45.03;96061.69;6104473;29;20044;-70
2022/09/26 06:23:06;;;;;;;0.88;0.82;;;;;;;15.70;44.79;96053.19;6104286;29;20054;-69
2022/09/26 06:26:23;;;;;;;0.68;0.68;;;;;;;15.94;44.17;96060.56;6104596;29;20414;-70
2022/09/26 06:29:28;;;;;;;1.10;0.80;;;;;;;15.77;44.57;96057.88;6104401;29;20517;-69
2022/09/26 06:32:31;;;;;;;0.63;0.63;;;;;;;16.87;42.61;96061.88;6104220;29;20052;-69
2022/09/26 06:35:34;;;;;;;0.98;0.60;;;;;;;18.57;39.38;96057.91;6104354;29;20052;-69
2022/09/26 06:38:39;;;;;;;0.70;0.70;;;;;;;19.02;38.40;96061.81;6104444;29;20040;-69
2022/09/26 06:41:43;;;;;;;1.05;0.60;;;;;;;20.54;36.73;96065.75;6102747;29;20056;-69
2022/09/26 06:44:47;;;;;;;1.40;0.70;;;;;;;23.18;32.42;96062.69;6103987;29;20466;-69
2022/09/26 06:47:52;;;;;;;0.63;0.45;;;;;;;22.64;32.35;96068.69;6103989;29;20040;-70
2022/09/26 06:50:59;;;;;;;0.80;0.57;;;;;;;21.34;33.64;96061.53;6104168;29;20048;-69
2022/09/26 06:54:03;;;;;;;1.02;0.82;;;;;;;20.21;34.82;96067.00;6103816;29;20043;-69
2022/09/26 06:57:08;;;;;;;0.65;0.50;;;;;;;19.41;35.94;96065.50;6102804;29;20047;-69
2022/09/26 07:00:14;;;;;;;1.33;0.80;;;;;;;19.07;36.84;96058.63;6104051;29;20048;-69
2022/09/26 07:03:18;;;;;;;0.50;0.50;;;;;;;18.37;37.82;96062.75;6104005;29;20044;-69
2022/09/26 07:06:21;;;;;;;1.02;0.70;;;;;;;17.73;38.99;96059.84;6103499;29;20048;-69
2022/09/26 07:09:25;;;;;;;0.60;0.57;;;;;;;17.31;39.23;96065.22;6103414;29;20415;-69
2022/09/26 07:12:30;;;;;;;0.60;0.50;;;;;;;16.98;39.75;96057.09;6103513;29;20056;-70
2022/09/26 07:15:36;;;;;;;0.70;0.57;;;;;;;17.17;39.51;96064.00;6103518;29;20443;-69
2022/09/26 07:18:39;;;;;;;0.70;0.70;;;;;;;17.73;39.00;96054.53;6103110;29;20044;-69
2022/09/26 07:21:46;;;;;;;0.40;0.40;;;;;;;18.92;37.65;96066.50;6103274;29;20052;-69
2022/09/26 07:24:50;;;;;;;0.63;0.55;;;;;;;20.78;34.17;96069.22;6102897;29;20048;-69
2022/09/26 07:27:55;;;;;;;0.63;0.40;;;;;;;24.46;29.59;96057.56;6103009;29;20047;-69
2022/09/26 07:31:00;;;;;;;0.80;0.60;;;;;;;29.15;23.75;96066.69;6103093;29;20047;-69
2022/09/26 07:34:07;;;;;;;0.82;0.57;;;;;;;32.77;19.89;96073.53;6102871;29;20040;-69
2022/09/26 07:37:09;;;;;;;1.27;0.40;;;;;;;34.65;18.06;96061.94;6102872;29;20506;-69
2022/09/26 07:40:13;;;;;;;0.50;0.32;;;;;;;36.04;16.83;96057.88;6102773;29;20472;-69
2022/09/26 07:43:19;;;;;;;0.73;0.60;;;;;;;35.57;16.20;96061.88;6102708;29;20044;-69
2022/09/26 07:53:08;;;;;;;0.57;0.55;;;;;;;34.22;16.43;96069.50;6102269;29;20088;-69
2022/09/26 07:56:15;;;;;;;2.05;1.40;;;;;;;34.04;16.93;96075.44;6102522;29;20048;-69
2022/09/26 07:59:20;;;;;;;1.42;0.90;;;;;;;33.46;16.96;96075.41;6102133;29;20048;-69
2022/09/26 08:02:32;;;;;;;0.50;0.50;;;;;;;32.92;17.08;96079.09;6102458;29;20110;-69
2022/09/26 08:05:37;;;;;;;1.08;0.80;;;;;;;28.73;20.77;96064.03;6102202;29;20040;-68
2022/09/26 08:08:42;;;;;;;1.08;0.93;;;;;;;27.49;22.58;96069.91;6101659;29;20048;-68
2022/09/26 08:11:46;;;;;;;0.90;0.60;;;;;;;27.14;22.58;96056.94;6101914;29;20079;-69
2022/09/26 08:14:51;;;;;;;1.00;0.93;;;;;;;27.99;21.71;96045.38;6101813;29;20126;-69
2022/09/26 08:17:55;;;;;;;2.78;1.88;;;;;;;25.92;23.81;96057.25;6101680;29;20048;-69
2022/09/26 08:21:04;;;;;;;1.02;0.93;;;;;;;23.60;26.40;96065.38;6101906;29;20055;-69
2022/09/26 08:24:07;;;;;;;1.83;1.20;;;;;;;21.65;29.36;96049.78;6102008;29;20067;-69
2022/09/26 08:27:12;;;;;;;1.10;1.00;;;;;;;20.63;30.95;96056.63;6101873;29;20036;-68
2022/09/26 08:30:16;;;;;;;0.63;0.57;;;;;;;19.63;32.36;96048.69;6102682;29;20051;-69
2022/09/26 08:33:23;;;;;;;0.50;0.50;;;;;;;18.81;33.69;96057.03;6101810;29;20518;-69
2022/09/26 08:36:31;;;;;;;1.35;0.90;;;;;;;18.21;35.43;96052.09;6100831;29;20048;-69
2022/09/26 08:39:35;;;;;;;3.78;2.33;;;;;;;17.76;36.64;96052.53;6101641;29;20503;-69
2022/09/26 08:43:05;;;;;;;5.07;2.90;;;;;;;17.58;37.37;96065.97;6101008;29;20048;-69
2022/09/26 08:49:54;;;;;;;7.55;4.60;;;;;;;16.93;38.70;96062.09;6067537;29;20052;-69
2022/09/26 08:53:07;;;;;;;8.13;4.23;;;;;;;17.41;38.19;96065.94;6101498;29;20048;-69
2022/09/26 08:56:20;;;;;;;3.40;2.10;;;;;;;20.96;32.48;96071.53;6100255;29;20056;-70
2022/09/26 08:59:34;;;;;;;0.90;0.60;;;;;;;24.07;27.68;96067.19;6101582;29;20056;-68
2022/09/26 09:02:49;;;;;;;2.10;0.60;;;;;;;23.70;27.80;96065.84;6101422;29;20063;-69
2022/09/26 09:06:06;;;;;;;1.35;0.70;;;;;;;22.96;29.02;96063.81;6101530;29;20052;-69
2022/09/26 09:09:14;;;;;;;1.38;0.70;;;;;;;23.17;28.56;96063.72;6101320;29;20051;-69
2022/09/26 09:12:43;;;;;;;0.70;0.30;;;;;;;24.15;27.25;96075.06;6101255;29;20052;-69
2022/09/26 09:16:07;;;;;;;0.50;0.43;;;;;;;23.66;27.94;96086.88;6100859;29;20048;-68
2022/09/26 09:19:26;;;;;;;0.45;0.40;;;;;;;24.03;28.01;96087.44;6101180;29;20048;-69
2022/09/26 09:22:43;;;;;;;0.50;0.50;;;;;;;25.80;24.91;96093.16;6100938;29;20566;-69
2022/09/26 09:25:47;;;;;;;0.35;0.35;;;;;;;27.14;23.96;96097.44;6100994;29;20056;-69
2022/09/26 09:29:10;;;;;;;1.00;0.80;;;;;;;27.83;23.30;96100.06;6100949;29;20044;-69
2022/09/26 09:32:17;;;;;;;1.43;0.60;;;;;;;26.70;24.31;96093.06;6101040;29;20052;-69
2022/09/26 09:35:47;;;;;;;0.38;0.38;;;;;;;24.03;27.55;96087.44;6099080;29;20540;-69
2022/09/26 09:38:58;;;;;;;2.00;0.85;;;;;;;21.68;30.66;96086.91;6096299;29;20056;-69
2022/09/26 09:42:35;;;;;;;1.20;0.65;;;;;;;20.55;32.56;96090.63;6100499;29;20202;-71
2022/09/26 09:45:50;;;;;;;0.82;0.68;;;;;;;19.81;34.35;96079.66;6079400;29;20056;-68
2022/09/26 09:49:09;;;;;;;1.65;0.50;;;;;;;19.49;34.81;96084.13;6105212;29;20044;-69
2022/09/26 09:52:27;;;;;;;0.63;0.35;;;;;;;18.93;35.33;96102.00;6105263;29;20064;-69
2022/09/26 09:55:51;;;;;;;0.77;0.40;;;;;;;18.57;35.98;96094.34;6105295;29;20052;-69
2022/09/26 09:59:09;;;;;;;0.57;0.30;;;;;;;18.67;36.30;96094.19;6105084;29;20052;-69
2022/09/26 10:02:47;;;;;;;2.13;0.80;;;;;;;19.14;35.32;96110.28;6105040;29;20056;-70
2022/09/26 10:05:57;;;;;;;1.50;0.50;;;;;;;18.86;35.22;96095.69;6104933;29;20135;-69
2022/09/26 10:09:09;;;;;;;0.80;0.60;;;;;;;18.67;36.03;96100.34;6104658;29;20044;-70
2022/09/26 10:12:17;;;;;;;3.10;1.73;;;;;;;18.42;36.29;96112.00;6104435;29;20060;-70
2022/09/26 10:15:26;;;;;;;2.50;1.20;;;;;;;18.94;35.74;96116.97;6104688;29;20056;-69
2022/09/26 10:18:51;;;;;;;0.30;0.30;;;;;;;19.51;34.43;96108.81;6104863;29;20044;-69
2022/09/26 10:21:58;;;;;;;3.08;1.42;;;;;;;19.17;35.04;96117.94;6104501;29;20044;-69
2022/09/26 10:25:15;;;;;;;2.28;1.25;;;;;;;20.09;33.86;96107.50;6104187;29;20048;-69
2022/09/26 10:28:36;;;;;;;0.80;0.57;;;;;;;20.61;32.91;96109.47;6104604;29;20131;-69
2022/09/26 10:31:44;;;;;;;0.83;0.50;;;;;;;20.11;33.44;96116.16;6104280;29;20130;-69
2022/09/26 10:35:17;;;;;;;2.78;1.42;;;;;;;19.44;34.33;96113.16;6104586;29;20063;-69
2022/09/26 10:38:28;;;;;;;2.13;0.90;;;;;;;21.22;31.97;96119.22;6104428;29;20052;-69
2022/09/26 10:41:38;;;;;;;1.17;0.50;;;;;;;23.81;28.13;96116.31;6104440;29;20135;-68
2022/09/26 10:44:41;;;;;;;0.75;0.30;;;;;;;25.26;25.78;96122.94;6102676;29;20526;-68
2022/09/26 10:47:50;;;;;;;0.57;0.30;;;;;;;25.37;25.80;96134.94;6103967;29;20040;-69
2022/09/26 10:50:59;;;;;;;1.00;0.20;;;;;;;25.66;24.81;96140.88;6103930;29;20051;-69
2022/09/26 10:54:06;;;;;;;0.10;0.10;;;;;;;25.78;24.66;96133.78;6103848;29;20068;-69
2022/09/26 10:57:26;;;;;;;1.13;0.30;;;;;;;25.74;24.91;96129.84;6103016;29;20088;-69
2022/09/26 11:00:37;;;;;;;1.90;1.60;;;;;;;25.77;25.16;96129.44;6103652;29;20507;-68
2022/09/26 11:03:43;;;;;;;1.77;1.45;;;;;;;26.05;24.60;96141.78;6103799;29;20044;-70
2022/09/26 11:06:48;;;;;;;1.55;1.27;;;;;;;26.03;24.91;96135.78;6103130;29;20384;-68
2022/09/26 11:10:00;;;;;;;1.13;1.00;;;;;;;26.22;24.42;96161.00;6103438;29;20054;-68
2022/09/26 11:13:22;;;;;;;0.75;0.38;;;;;;;24.63;26.32;96139.50;6103172;29;20501;-68
2022/09/26 11:16:24;;;;;;;0.35;0.20;;;;;;;22.35;29.21;96153.63;6103263;29;20060;-69
2022/09/26 11:19:34;;;;;;;0.80;0.60;;;;;;;21.12;31.14;96156.97;6103615;29;20095;-69
2022/09/26 11:22:48;;;;;;;3.15;0.93;;;;;;;21.22;31.00;96154.00;6103134;29;20116;-69
2022/09/26 11:26:08;;;;;;;2.28;1.02;;;;;;;20.33;32.58;96159.09;6102962;29;20188;-69
2022/09/26 11:29:54;;;;;;;1.92;1.02;;;;;;;19.30;34.14;96186.72;6101441;29;20052;-69
2022/09/26 11:33:04;;;;;;;3.72;1.42;;;;;;;18.38;35.50;96168.28;6053602;29;20438;-70
2022/09/26 11:36:31;;;;;;;1.48;1.23;;;;;;;17.57;37.46;96171.53;6055714;29;20135;-68
2022/09/26 11:39:41;;;;;;;3.67;2.40;;;;;;;17.22;38.47;96169.88;6103434;29;20067;-69
2022/09/26 11:43:09;;;;;;;2.97;2.13;;;;;;;16.78;39.91;96185.88;6102853;29;20052;-69
2022/09/26 11:46:37;;;;;;;2.40;2.20;;;;;;;16.38;41.15;96187.16;6091224;29;20646;-69
2022/09/26 11:50:19;;;;;;;3.47;2.17;;;;;;;15.88;42.00;96187.66;6102687;29;20047;-69
2022/09/26 11:53:38;;;;;;;2.28;2.05;;;;;;;15.55;43.08;96181.97;6117194;29;20048;-71
2022/09/26 11:57:01;;;;;;;2.92;2.03;;;;;;;15.40;43.35;96178.97;6102483;29;20363;-70
2022/09/26 12:00:28;;;;;;;2.38;2.03;;;;;;;15.38;43.36;96185.38;6102642;29;20093;-70
2022/09/26 12:03:35;;;;;;;2.55;1.80;;;;;;;15.23;43.75;96193.81;6102663;29;20059;-69
2022/09/26 12:07:01;;;;;;;2.28;1.75;;;;;;;16.46;41.66;96186.41;6102399;29;20139;-70
2022/09/26 12:10:25;;;;;;;1.92;1.67;;;;;;;17.49;39.10;96200.75;6102357;29;20094;-69
2022/09/26 12:13:41;;;;;;;1.80;1.70;;;;;;;17.91;38.25;96206.13;6102090;29;20079;-69
2022/09/26 12:17:07;;;;;;;2.92;1.75;;;;;;;16.88;39.85;96207.03;6102321;29;20527;-70
2022/09/26 12:20:23;;;;;;;3.25;2.10;;;;;;;15.89;41.57;96197.31;6102058;29;20043;-70
2022/09/26 12:23:47;;;;;;;2.17;1.98;;;;;;;15.13;42.98;96197.47;6101933;29;20055;-69
2022/09/26 12:27:14;;;;;;;2.08;1.83;;;;;;;14.69;44.17;96205.06;6102497;29;20060;-69
2022/09/26 12:30:23;;;;;;;2.90;2.13;;;;;;;14.47;44.65;96203.53;6101661;29;20056;-69
2022/09/26 12:33:33;;;;;;;2.40;2.15;;;;;;;14.34;45.23;96207.28;6101729;29;20048;-70
2022/09/26 12:36:56;;;;;;;2.83;1.85;;;;;;;14.21;45.33;96203.25;6101965;29;20058;-69
2022/09/26 12:40:15;;;;;;;6.95;2.60;;;;;;;14.48;45.18;96213.16;6101507;29;20079;-69
2022/09/26 12:43:46;;;;;;;2.97;2.25;;;;;;;14.48;45.02;96213.97;6101497;29;20055;-71
2022/09/26 12:47:24;;;;;;;1.88;1.60;;;;;;;14.15;45.90;96218.72;6100965;29;20430;-69
2022/09/26 12:50:56;;;;;;;2.97;2.20;;;;;;;14.20;45.71;96215.63;6101482;29;20052;-69
2022/09/26 12:54:33;;;;;;;3.13;2.28;;;;;;;14.12;45.66;96220.78;6101146;29;20143;-69
2022/09/26 12:58:02;;;;;;;2.63;2.25;;;;;;;13.93;46.23;96234.81;6101546;29;20048;-68
2022/09/26 13:01:36;;;;;;;2.30;2.10;;;;;;;13.70;46.60;96227.09;6101408;29;20151;-68
2022/09/26 13:05:14;;;;;;;1.90;1.80;;;;;;;13.42;47.19;96220.75;6101205;29;20048;-70
2022/09/26 13:08:26;;;;;;;3.58;2.25;;;;;;;13.22;47.48;96221.59;6101123;29;20048;-69
2022/09/26 13:11:37;;;;;;;2.53;2.30;;;;;;;13.16;47.48;96224.75;6099941;29;20395;-69
2022/09/26 13:14:59;;;;;;;3.35;2.00;;;;;;;13.13;47.13;96219.72;6100903;29;20055;-69
2022/09/26 13:18:11;;;;;;;2.90;2.20;;;;;;;13.04;47.46;96219.53;6101157;29;20127;-69
2022/09/26 13:21:23;;;;;;;2.85;2.38;;;;;;;12.97;47.39;96225.50;6102958;29;20052;-69
2022/09/26 13:24:38;;;;;;;3.58;2.88;;;;;;;12.91;47.64;96221.56;6105622;29;20548;-69
2022/09/26 13:27:43;;;;;;;3.20;2.90;;;;;;;12.81;48.06;96226.78;6105867;29;20417;-70
2022/09/26 13:30:52;;;;;;;2.65;2.42;;;;;;;12.72;48.06;96226.72;6105654;29;20040;-70
2022/09/26 13:34:03;;;;;;;2.03;1.83;;;;;;;12.67;48.34;96234.19;6105534;29;20414;-70
2022/09/26 13:37:17;;;;;;;1.65;1.55;;;;;;;12.62;48.38;96239.84;6105703;29;20047;-70
2022/09/26 13:40:38;;;;;;;2.05;1.80;;;;;;;12.55;48.43;96231.59;6105431;29;20650;-69
2022/09/26 13:43:54;;;;;;;2.05;1.77;;;;;;;12.43;49.08;96243.19;6105002;29;20434;-69
2022/09/26 13:47:15;;;;;;;2.50;2.00;;;;;;;12.35;49.49;96242.97;6105024;29;20139;-70
2022/09/26 13:50:47;;;;;;;2.40;2.20;;;;;;;12.26;49.93;96241.09;6104894;29;20143;-70
2022/09/26 13:53:56;;;;;;;4.07;2.13;;;;;;;12.34;50.25;96246.53;6104967;29;20040;-72
2022/09/26 13:57:19;;;;;;;2.65;2.30;;;;;;;12.07;51.05;96241.75;6104901;29;20055;-70
2022/09/26 14:00:30;;;;;;;3.85;2.90;;;;;;;12.15;51.14;96254.31;6104776;29;20052;-69
2022/09/26 14:03:38;;;;;;;2.67;2.42;;;;;;;12.06;51.66;96235.63;6104924;29;20047;-69
2022/09/26 14:10:51;;;;;;;2.30;1.58;;;;;;;11.83;51.68;96249.78;6104490;29;20044;-69
2022/09/26 14:14:20;;;;;;;4.75;2.28;;;;;;;11.81;51.86;96256.97;6104638;29;20052;-70
2022/09/26 14:17:44;;;;;;;2.88;2.40;;;;;;;11.59;52.15;96263.94;6104497;29;20056;-68
2022/09/26 14:20:55;;;;;;;1.65;1.50;;;;;;;11.54;52.12;96266.09;6104581;29;20442;-69
2022/09/26 14:24:37;;;;;;;2.38;1.83;;;;;;;11.60;52.15;96268.25;6103965;29;20590;-70
2022/09/26 14:27:40;;;;;;;3.35;1.90;;;;;;;11.53;52.49;96267.06;6104513;29;20052;-69
2022/09/26 14:31:07;;;;;;;3.43;2.67;;;;;;;11.46;52.79;96265.84;6104479;29;20134;-69
2022/09/26 14:34:21;;;;;;;7.47;3.97;;;;;;;11.42;53.22;96277.59;6103315;29;20051;-69
2022/09/26 14:37:23;;;;;;;7.00;3.92;;;;;;;11.33;53.46;96270.41;6104457;29;20070;-69
2022/09/26 14:40:31;;;;;;;5.35;3.42;;;;;;;11.27;53.42;96268.25;6104142;29;20048;-70
2022/09/26 14:43:34;;;;;;;4.63;3.28;;;;;;;11.20;53.49;96271.34;6103824;29;20195;-70
2022/09/26 14:46:41;;;;;;;3.35;2.97;;;;;;;11.09;54.14;96273.13;6103935;29;20064;-69
2022/09/26 14:49:52;;;;;;;2.75;2.45;;;;;;;11.05;54.46;96275.16;6104043;29;20494;-69
2022/09/26 14:53:00;;;;;;;3.10;2.80;;;;;;;10.77;55.16;96281.69;6102970;29;20052;-70
2022/09/26 14:56:28;;;;;;;4.43;3.33;;;;;;;10.67;55.39;96286.81;6104333;29;20569;-69
2022/09/26 14:59:35;;;;;;;4.55;2.88;;;;;;;10.64;55.80;96291.44;6103478;29;20096;-70
2022/09/26 15:02:40;;;;;;;5.15;3.95;;;;;;;10.55;56.45;96298.22;6103621;29;20052;-69
2022/09/26 15:05:43;;;;;;;3.53;2.83;;;;;;;10.62;56.46;96299.47;6103151;29;20048;-70
2022/09/26 15:08:46;;;;;;;3.22;2.65;;;;;;;10.40;56.84;96294.09;6103533;29;20060;-71
2022/09/26 15:11:54;;;;;;;3.22;2.85;;;;;;;10.45;57.13;96299.88;6103592;29;20059;-70
2022/09/26 15:15:08;;;;;;;3.08;2.78;;;;;;;10.30;57.41;96297.41;6102678;29;20116;-69
2022/09/26 15:18:33;;;;;;;;;;;;;;;10.16;57.15;96297.50;6104059;29;20426;-69
2022/09/26 15:21:43;;;;;;;3.22;2.78;;;;;;;10.15;57.92;96295.84;6099753;29;19929;-69
2022/09/26 15:24:52;;;;;;;4.72;3.33;;;;;;;9.98;58.49;96299.69;6103622;29;20134;-70
2022/09/26 15:27:58;;;;;;;3.85;3.00;;;;;;;10.03;58.71;96297.56;6103390;29;20058;-70